createdAt,value
2023-04-30T00:00:48.021Z,3.75
2023-04-30T00:03:14.953Z,4.63
2023-04-30T00:05:41.827Z,4.50
2023-04-30T00:08:08.662Z,4.22
2023-04-30T00:10:35.570Z,3.90
2023-04-30T00:13:02.433Z,5.05
2023-04-30T00:15:29.330Z,4.55
2023-04-30T00:17:56.231Z,4.60
2023-04-30T00:20:23.244Z,4.60
2023-04-30T00:22:50.110Z,4.47
2023-04-30T00:25:17.120Z,3.90
2023-04-30T00:27:43.939Z,5.18
2023-04-30T00:30:11.530Z,4.22
2023-04-30T00:32:38.376Z,4.18
2023-04-30T00:35:05.947Z,3.30
2023-04-30T00:37:32.843Z,4.18
2023-04-30T00:39:59.645Z,4.72
2023-04-30T00:42:26.521Z,4.18
2023-04-30T00:44:53.357Z,4.43
2023-04-30T00:47:20.424Z,3.55
2023-04-30T00:49:47.519Z,4.65
2023-04-30T00:52:14.764Z,4.32
2023-04-30T00:54:41.877Z,4.32
2023-04-30T00:57:12.931Z,4.55
2023-04-30T00:59:39.837Z,4.07
2023-04-30T01:02:07.190Z,4.20
2023-04-30T01:04:40.312Z,4.38
2023-04-30T01:07:07.574Z,4.55
2023-04-30T01:09:34.637Z,4.65
2023-04-30T01:12:29.874Z,2.83
2023-04-30T01:15:24.195Z,3.70
2023-04-30T01:18:21.073Z,3.45
2023-04-30T01:21:13.419Z,4.18
2023-04-30T01:24:13.129Z,3.75
2023-04-30T01:26:55.000Z,3.60
2023-04-30T01:29:22.639Z,3.35
2023-04-30T01:31:49.521Z,3.15
2023-04-30T01:34:16.511Z,3.42
2023-04-30T01:37:15.581Z,3.28
2023-04-30T01:40:20.799Z,3.67
2023-04-30T01:43:08.059Z,4.50
2023-04-30T01:45:40.585Z,3.35
2023-04-30T01:48:24.730Z,4.80
2023-04-30T01:51:10.682Z,3.38
2023-04-30T01:53:46.448Z,4.50
2023-04-30T01:56:33.155Z,3.67
2023-04-30T01:59:01.283Z,4.55
2023-04-30T02:01:32.560Z,4.25
2023-04-30T02:03:59.862Z,4.18
2023-04-30T02:06:28.814Z,4.10
2023-04-30T02:08:57.108Z,4.25
2023-04-30T02:11:24.905Z,4.05
2023-04-30T02:13:51.886Z,3.70
2023-04-30T02:16:18.818Z,4.05
2023-04-30T02:18:46.769Z,3.33
2023-04-30T02:21:14.474Z,3.53
2023-04-30T02:23:41.916Z,2.78
2023-04-30T02:26:08.988Z,3.15
2023-04-30T02:28:36.323Z,2.72
2023-04-30T02:31:03.249Z,3.92
2023-04-30T02:33:30.101Z,4.05
2023-04-30T02:35:56.921Z,2.67
2023-04-30T02:38:23.803Z,3.83
2023-04-30T02:40:50.638Z,3.78
2023-04-30T02:43:17.498Z,3.17
2023-04-30T02:45:44.364Z,3.63
2023-04-30T02:48:11.375Z,3.67
2023-04-30T02:50:38.186Z,3.92
2023-04-30T02:53:05.096Z,4.22
2023-04-30T02:55:32.980Z,4.20
2023-04-30T02:57:59.986Z,3.83
2023-04-30T03:00:27.333Z,3.88
2023-04-30T03:02:54.252Z,4.20
2023-04-30T03:05:21.289Z,4.22
2023-04-30T03:07:48.123Z,5.13
2023-04-30T03:10:14.962Z,4.13
2023-04-30T03:12:42.102Z,3.92
2023-04-30T03:15:09.525Z,3.85
2023-04-30T03:17:36.453Z,4.45
2023-04-30T03:20:03.711Z,4.50
2023-04-30T03:22:30.902Z,4.72
2023-04-30T03:24:57.717Z,4.03
2023-04-30T03:27:24.549Z,4.40
2023-04-30T03:29:51.399Z,4.22
2023-04-30T03:32:18.254Z,4.75
2023-04-30T03:34:45.093Z,3.90
2023-04-30T03:37:11.926Z,4.45
2023-04-30T03:39:38.737Z,4.88
2023-04-30T03:42:05.578Z,4.00
2023-04-30T03:44:32.413Z,4.93
2023-04-30T03:46:59.254Z,4.82
2023-04-30T03:49:26.063Z,8.20
2023-04-30T03:51:52.908Z,7.70
2023-04-30T03:54:19.786Z,9.23
2023-04-30T03:56:46.691Z,8.45
2023-04-30T03:59:13.688Z,8.35
2023-04-30T04:01:40.631Z,8.18
2023-04-30T04:04:08.224Z,6.32
2023-04-30T04:06:35.307Z,4.70
2023-04-30T04:09:02.320Z,5.63
2023-04-30T04:11:29.389Z,5.65
2023-04-30T04:13:56.265Z,3.80
2023-04-30T04:16:23.130Z,4.15
2023-04-30T04:18:50.025Z,4.57
2023-04-30T04:21:17.259Z,5.28
2023-04-30T04:23:44.101Z,4.85
2023-04-30T04:26:10.921Z,4.40
2023-04-30T04:28:39.267Z,4.18
2023-04-30T04:31:06.150Z,5.05
2023-04-30T04:33:33.348Z,3.95
2023-04-30T04:36:00.159Z,4.72
2023-04-30T04:38:27.018Z,4.82
2023-04-30T04:40:54.547Z,5.15
2023-04-30T04:43:21.935Z,5.15
2023-04-30T04:45:48.971Z,5.03
2023-04-30T04:48:16.082Z,4.22
2023-04-30T04:50:42.995Z,4.85
2023-04-30T04:53:09.888Z,5.07
2023-04-30T04:55:36.719Z,6.20
2023-04-30T04:58:03.568Z,5.05
2023-04-30T05:00:30.614Z,5.57
2023-04-30T05:02:57.873Z,5.32
2023-04-30T05:05:24.762Z,5.72
2023-04-30T05:07:52.718Z,5.80
2023-04-30T05:10:19.592Z,6.20
2023-04-30T05:12:46.435Z,6.28
2023-04-30T05:15:13.277Z,5.10
2023-04-30T05:17:40.135Z,6.45
2023-04-30T05:20:07.930Z,6.22
2023-04-30T05:22:34.798Z,6.85
2023-04-30T05:25:01.972Z,6.35
2023-04-30T05:27:29.253Z,5.10
2023-04-30T05:29:56.419Z,6.00
2023-04-30T05:32:23.958Z,6.18
2023-04-30T05:34:51.119Z,7.07
2023-04-30T05:37:19.610Z,6.13
2023-04-30T05:39:47.009Z,7.07
2023-04-30T05:42:13.876Z,6.60
2023-04-30T05:44:41.815Z,6.45
2023-04-30T05:47:08.648Z,6.47
2023-04-30T05:49:36.298Z,6.95
2023-04-30T05:52:03.872Z,6.20
2023-04-30T05:54:31.735Z,5.68
2023-04-30T05:56:58.648Z,6.70
2023-04-30T05:59:26.155Z,5.85
2023-04-30T06:01:53.246Z,5.35
2023-04-30T06:04:20.253Z,6.60
2023-04-30T06:06:47.322Z,5.57
2023-04-30T06:09:14.195Z,5.72
2023-04-30T06:11:42.499Z,6.57
2023-04-30T06:14:10.819Z,6.78
2023-04-30T06:16:38.581Z,6.63
2023-04-30T06:19:05.564Z,5.82
2023-04-30T06:21:32.553Z,6.43
2023-04-30T06:24:02.476Z,5.82
2023-04-30T06:26:29.486Z,5.85
2023-04-30T06:28:56.328Z,7.38
2023-04-30T06:31:23.512Z,5.85
2023-04-30T06:33:50.746Z,5.95
2023-04-30T06:36:17.640Z,6.10
2023-04-30T06:38:44.530Z,6.15
2023-04-30T06:41:11.440Z,5.57
2023-04-30T06:43:38.361Z,6.07
2023-04-30T06:46:06.897Z,5.30
2023-04-30T06:48:33.810Z,5.28
2023-04-30T06:51:00.762Z,6.13
2023-04-30T06:53:27.600Z,4.55
2023-04-30T06:55:55.066Z,5.45
2023-04-30T06:58:21.892Z,6.32
2023-04-30T07:00:48.723Z,6.28
2023-04-30T07:03:15.824Z,5.65
2023-04-30T07:05:42.860Z,5.97
2023-04-30T07:08:09.727Z,5.45
2023-04-30T07:10:36.762Z,5.70
2023-04-30T07:13:03.695Z,6.10
2023-04-30T07:15:30.527Z,6.18
2023-04-30T07:17:57.593Z,5.43
2023-04-30T07:20:24.686Z,5.75
2023-04-30T07:22:51.553Z,5.30
2023-04-30T07:25:18.677Z,5.88
2023-04-30T07:27:46.195Z,5.28
2023-04-30T07:30:13.315Z,4.70
2023-04-30T07:32:41.765Z,5.70
2023-04-30T07:35:09.369Z,5.60
2023-04-30T07:37:36.625Z,4.32
2023-04-30T07:40:04.556Z,4.75
2023-04-30T07:42:31.358Z,4.68
2023-04-30T07:44:58.289Z,5.55
2023-04-30T07:47:25.974Z,4.78
2023-04-30T07:49:53.653Z,5.07
2023-04-30T07:52:20.753Z,5.70
2023-04-30T07:54:47.586Z,5.18
2023-04-30T07:57:15.426Z,5.70
2023-04-30T07:59:42.318Z,5.88
2023-04-30T08:02:09.910Z,4.88
2023-04-30T08:04:36.812Z,5.43
2023-04-30T08:07:04.796Z,4.95
2023-04-30T08:09:31.853Z,4.40
2023-04-30T08:11:58.665Z,4.30
2023-04-30T08:14:25.503Z,5.03
2023-04-30T08:16:52.612Z,4.80
2023-04-30T08:19:19.452Z,6.40
2023-04-30T08:21:46.342Z,5.13
2023-04-30T08:24:13.187Z,5.03
2023-04-30T08:26:39.994Z,4.00
2023-04-30T08:29:08.509Z,5.85
2023-04-30T08:31:36.203Z,5.00
2023-04-30T08:34:03.100Z,4.60
2023-04-30T08:36:29.956Z,3.95
2023-04-30T08:38:57.715Z,4.78
2023-04-30T08:41:27.252Z,3.92
2023-04-30T08:43:54.296Z,3.80
2023-04-30T08:46:23.505Z,4.80
2023-04-30T08:48:50.663Z,4.28
2023-04-30T08:51:17.560Z,4.40
2023-04-30T08:53:46.369Z,3.90
2023-04-30T08:56:13.277Z,3.97
2023-04-30T08:58:41.195Z,3.70
2023-04-30T09:01:09.852Z,3.92
2023-04-30T09:03:37.743Z,3.90
2023-04-30T09:06:04.987Z,3.90
2023-04-30T09:08:50.883Z,3.85
2023-04-30T09:11:23.285Z,4.28
2023-04-30T09:13:57.447Z,4.00
2023-04-30T09:16:26.565Z,4.70
2023-04-30T09:18:53.953Z,4.03
2023-04-30T09:21:37.492Z,4.05
2023-04-30T09:24:05.962Z,3.45
2023-04-30T09:26:38.478Z,3.58
2023-04-30T09:29:10.078Z,4.53
2023-04-30T09:31:39.074Z,3.88
2023-04-30T09:34:06.692Z,4.18
2023-04-30T09:36:34.755Z,3.53
2023-04-30T09:39:14.794Z,3.17
2023-04-30T09:41:43.215Z,3.95
2023-04-30T09:44:31.970Z,3.70
2023-04-30T09:46:59.596Z,3.22
2023-04-30T09:49:27.638Z,3.13
2023-04-30T09:51:59.844Z,2.88
2023-04-30T09:54:29.704Z,2.83
2023-04-30T09:56:59.391Z,3.08
2023-04-30T09:59:38.065Z,3.10
2023-04-30T10:02:07.335Z,2.15
2023-04-30T10:04:38.144Z,1.95
2023-04-30T10:07:10.832Z,2.90
2023-04-30T10:10:05.266Z,2.03
2023-04-30T10:12:57.062Z,2.72
2023-04-30T10:15:30.037Z,2.28
2023-04-30T10:20:32.796Z,2.47
2023-04-30T10:23:00.929Z,2.25
2023-04-30T10:25:29.328Z,2.15
2023-04-30T10:27:56.890Z,2.03
2023-04-30T10:30:24.525Z,2.72
2023-04-30T10:33:14.901Z,2.15
2023-04-30T10:35:57.701Z,5.25
2023-04-30T10:38:28.270Z,2.53
2023-04-30T10:41:01.600Z,1.73
2023-04-30T10:43:31.378Z,1.30
2023-04-30T10:45:59.030Z,1.75
2023-04-30T10:48:27.229Z,1.83
2023-04-30T10:50:59.806Z,2.08
2023-04-30T10:53:31.568Z,1.75
2023-04-30T10:56:09.812Z,1.88
2023-04-30T10:58:39.626Z,2.10
2023-04-30T11:01:12.301Z,2.22
2023-04-30T11:03:43.302Z,2.08
2023-04-30T11:06:15.561Z,1.92
2023-04-30T11:08:46.865Z,1.60
2023-04-30T11:11:24.030Z,2.20
2023-04-30T11:14:01.924Z,2.00
2023-04-30T11:16:35.462Z,1.65
2023-04-30T11:19:14.322Z,1.95
2023-04-30T11:21:42.872Z,2.05
2023-04-30T11:24:09.713Z,2.50
2023-04-30T11:27:07.689Z,2.13
2023-04-30T11:29:35.471Z,1.83
2023-04-30T11:32:04.955Z,2.20
2023-04-30T11:34:31.790Z,2.20
2023-04-30T11:37:01.237Z,2.60
2023-04-30T11:39:29.513Z,1.88
2023-04-30T11:42:03.165Z,1.98
2023-04-30T11:44:30.092Z,2.35
2023-04-30T11:46:57.008Z,2.38
2023-04-30T11:49:23.985Z,2.15
2023-04-30T11:51:51.995Z,2.10
2023-04-30T11:54:19.448Z,2.10
2023-04-30T11:56:50.760Z,1.83
2023-04-30T11:59:20.150Z,2.13
2023-04-30T12:01:47.066Z,2.90
2023-04-30T12:04:14.138Z,2.33
2023-04-30T12:06:43.638Z,2.90
2023-04-30T12:09:10.779Z,2.08
2023-04-30T12:11:39.327Z,2.40
2023-04-30T12:14:10.908Z,2.25
2023-04-30T12:16:46.174Z,2.13
2023-04-30T12:19:13.426Z,2.70
2023-04-30T12:21:42.536Z,2.08
2023-04-30T12:24:12.766Z,2.33
2023-04-30T12:26:42.304Z,2.30
2023-04-30T12:29:14.315Z,2.38
2023-04-30T12:34:12.843Z,2.50
2023-04-30T12:36:44.488Z,1.95
2023-04-30T12:39:16.463Z,2.58
2023-04-30T12:41:49.379Z,2.17
2023-04-30T12:44:24.959Z,2.67
2023-04-30T12:46:57.438Z,2.03
2023-04-30T12:49:31.069Z,2.38
2023-04-30T12:52:04.625Z,1.90
2023-04-30T12:54:32.913Z,2.10
2023-04-30T12:57:12.663Z,3.00
2023-04-30T13:00:00.540Z,1.98
2023-04-30T13:02:32.372Z,2.25
2023-04-30T13:04:59.792Z,1.65
2023-04-30T13:07:26.845Z,2.20
2023-04-30T13:09:54.026Z,2.40
2023-04-30T13:12:21.034Z,1.98
2023-04-30T13:14:47.961Z,2.38
2023-04-30T13:17:15.043Z,1.55
2023-04-30T13:19:42.136Z,2.47
2023-04-30T13:22:08.991Z,2.00
2023-04-30T13:24:36.250Z,2.03
2023-04-30T13:27:04.280Z,1.67
2023-04-30T13:29:31.969Z,2.28
2023-04-30T13:31:59.463Z,2.05
2023-04-30T13:34:26.475Z,1.85
2023-04-30T13:36:53.714Z,1.95
2023-04-30T13:39:20.759Z,2.10
2023-04-30T13:41:49.394Z,1.83
2023-04-30T13:44:17.274Z,1.40
2023-04-30T13:46:44.230Z,1.80
2023-04-30T13:49:11.201Z,1.88
2023-04-30T13:51:38.080Z,1.40
2023-04-30T13:54:04.942Z,1.60
2023-04-30T13:56:32.244Z,1.75
2023-04-30T13:58:59.133Z,1.60
2023-04-30T14:01:26.063Z,1.52
2023-04-30T14:03:53.110Z,1.83
2023-04-30T14:06:20.091Z,1.42
2023-04-30T14:08:46.977Z,2.10
2023-04-30T14:11:13.839Z,1.83
2023-04-30T14:13:41.677Z,1.55
2023-04-30T14:16:08.929Z,1.45
2023-04-30T14:18:35.865Z,1.70
2023-04-30T14:21:02.739Z,1.55
2023-04-30T14:23:29.644Z,1.73
2023-04-30T14:25:56.711Z,1.88
2023-04-30T14:28:23.977Z,2.33
2023-04-30T14:30:50.880Z,1.27
2023-04-30T14:33:17.778Z,1.77
2023-04-30T14:35:45.747Z,1.70
2023-04-30T14:38:12.669Z,1.92
2023-04-30T14:40:39.568Z,1.75
2023-04-30T14:43:06.497Z,2.28
2023-04-30T14:45:33.966Z,1.60
2023-04-30T14:48:04.001Z,1.48
2023-04-30T14:50:32.653Z,2.03
2023-04-30T14:52:59.493Z,1.83
2023-04-30T14:55:26.441Z,1.88
2023-04-30T14:57:53.749Z,1.52
2023-04-30T15:00:20.702Z,1.17
2023-04-30T15:02:48.117Z,1.80
2023-04-30T15:05:15.201Z,1.50
2023-04-30T15:07:42.077Z,1.80
2023-04-30T15:10:09.744Z,1.90
2023-04-30T15:12:36.654Z,1.75
2023-04-30T15:15:04.924Z,1.77
2023-04-30T15:17:35.049Z,1.40
2023-04-30T15:20:04.716Z,1.70
2023-04-30T15:22:31.760Z,1.77
2023-04-30T15:24:59.347Z,1.55
2023-04-30T15:27:28.260Z,1.50
2023-04-30T15:29:55.622Z,1.60
2023-04-30T15:32:22.643Z,1.73
2023-04-30T15:34:49.502Z,1.65
2023-04-30T15:37:16.309Z,1.30
2023-04-30T15:39:43.141Z,1.42
2023-04-30T15:42:09.998Z,1.40
2023-04-30T15:44:36.915Z,1.80
2023-04-30T15:47:03.918Z,1.42
2023-04-30T15:49:30.885Z,1.35
2023-04-30T15:51:57.749Z,1.83
2023-04-30T15:54:24.602Z,1.92
2023-04-30T15:56:51.850Z,1.65
2023-04-30T15:59:19.703Z,2.25
2023-04-30T16:01:46.889Z,2.00
2023-04-30T16:04:13.868Z,1.48
2023-04-30T16:06:40.956Z,1.70
2023-04-30T16:09:09.288Z,1.65
2023-04-30T16:11:36.380Z,1.48
2023-04-30T16:14:03.448Z,1.85
2023-04-30T16:16:30.593Z,1.60
2023-04-30T16:18:57.552Z,1.67
2023-04-30T16:21:24.760Z,1.88
2023-04-30T16:23:51.625Z,1.65
2023-04-30T16:26:18.527Z,1.85
2023-04-30T16:28:47.154Z,1.95
2023-04-30T16:31:15.716Z,1.80
2023-04-30T16:33:43.445Z,1.63
2023-04-30T16:36:11.215Z,2.08
2023-04-30T16:38:38.098Z,1.55
2023-04-30T16:41:05.206Z,1.75
2023-04-30T16:43:32.052Z,1.35
2023-04-30T16:45:59.022Z,1.88
2023-04-30T16:48:26.292Z,1.40
2023-04-30T16:50:53.139Z,2.40
2023-04-30T16:53:20.829Z,1.90
2023-04-30T16:55:47.743Z,2.15
2023-04-30T16:58:14.604Z,2.10
2023-04-30T17:00:41.444Z,2.00
2023-04-30T17:03:08.743Z,1.77
2023-04-30T17:05:35.789Z,1.83
2023-04-30T17:08:02.979Z,1.80
2023-04-30T17:10:32.833Z,1.80
2023-04-30T17:13:02.250Z,2.25
2023-04-30T17:15:29.165Z,1.42
2023-04-30T17:17:57.530Z,1.85
2023-04-30T17:20:24.360Z,2.25
2023-04-30T17:22:51.309Z,1.80
2023-04-30T17:25:18.151Z,2.15
2023-04-30T17:27:45.093Z,2.13
2023-04-30T17:30:12.249Z,1.88
2023-04-30T17:32:39.137Z,2.15
2023-04-30T17:35:06.877Z,1.88
2023-04-30T17:37:33.742Z,1.60
2023-04-30T17:40:00.646Z,1.70
2023-04-30T17:42:27.480Z,2.20
2023-04-30T17:44:54.314Z,1.58
2023-04-30T17:47:23.111Z,1.80
2023-04-30T17:49:50.636Z,1.63
2023-04-30T17:52:17.449Z,2.30
2023-04-30T17:54:44.296Z,1.80
2023-04-30T17:57:11.595Z,2.17
2023-04-30T17:59:39.292Z,2.30
2023-04-30T18:02:06.378Z,2.38
2023-04-30T18:04:33.663Z,1.95
2023-04-30T18:07:00.649Z,2.45
2023-04-30T18:09:27.536Z,2.20
2023-04-30T18:11:54.617Z,1.85
2023-04-30T18:14:21.508Z,2.25
2023-04-30T18:16:48.515Z,1.73
2023-04-30T18:19:15.429Z,1.48
2023-04-30T18:21:42.525Z,1.83
2023-04-30T18:24:09.578Z,1.75
2023-04-30T18:26:37.708Z,1.40
2023-04-30T18:29:05.044Z,1.35
2023-04-30T18:31:32.242Z,1.88
2023-04-30T18:33:59.127Z,1.85
2023-04-30T18:36:26.111Z,1.45
2023-04-30T18:38:52.937Z,1.77
2023-04-30T18:41:21.265Z,1.80
2023-04-30T18:43:48.146Z,1.90
2023-04-30T18:46:15.299Z,2.20
2023-04-30T18:48:42.184Z,1.67
2023-04-30T18:51:09.073Z,1.90
2023-04-30T18:53:36.910Z,2.05
2023-04-30T18:56:03.725Z,1.58
2023-04-30T18:58:30.615Z,1.65
2023-04-30T19:00:58.365Z,2.70
2023-04-30T19:03:25.570Z,1.88
2023-04-30T19:05:57.909Z,1.67
2023-04-30T19:08:24.936Z,2.17
2023-04-30T19:10:53.376Z,1.67
2023-04-30T19:13:20.330Z,1.65
2023-04-30T19:15:48.978Z,2.05
2023-04-30T19:18:17.001Z,2.20
2023-04-30T19:20:43.822Z,2.00
2023-04-30T19:23:10.891Z,1.65
2023-04-30T19:25:39.195Z,2.10
2023-04-30T19:28:06.105Z,1.45
2023-04-30T19:30:32.995Z,1.80
2023-04-30T19:32:59.904Z,2.45
2023-04-30T19:35:26.806Z,3.05
2023-04-30T19:37:53.646Z,3.13
2023-04-30T19:40:20.558Z,3.40
2023-04-30T19:42:47.819Z,2.80
2023-04-30T19:45:14.713Z,1.77
2023-04-30T19:47:41.591Z,1.58
2023-04-30T19:50:09.238Z,1.70
2023-04-30T19:52:36.500Z,1.70
2023-04-30T19:55:03.710Z,2.10
2023-04-30T19:57:35.111Z,1.75
2023-04-30T20:00:04.621Z,2.47
2023-04-30T20:02:32.782Z,2.60
2023-04-30T20:04:59.863Z,2.25
2023-04-30T20:07:26.671Z,2.55
2023-04-30T20:09:53.746Z,2.25
2023-04-30T20:12:21.183Z,2.15
2023-04-30T20:14:48.047Z,1.77
2023-04-30T20:17:15.687Z,2.20
2023-04-30T20:19:42.531Z,3.03
2023-04-30T20:22:13.385Z,3.28
2023-04-30T20:24:44.977Z,3.67
2023-04-30T20:27:15.069Z,2.72
2023-04-30T20:29:42.186Z,3.50
2023-04-30T20:32:09.464Z,2.58
2023-04-30T20:34:37.724Z,2.00
2023-04-30T20:37:07.427Z,2.00
2023-04-30T20:39:34.245Z,2.42
2023-04-30T20:42:01.719Z,2.17
2023-04-30T20:44:28.745Z,2.50
2023-04-30T20:46:55.670Z,2.42
2023-04-30T20:49:22.520Z,2.83
2023-04-30T20:51:49.365Z,2.50
2023-04-30T20:54:16.426Z,2.70
2023-04-30T20:56:45.295Z,2.03
2023-04-30T20:59:12.158Z,2.13
2023-04-30T21:01:39.511Z,1.83
2023-04-30T21:04:06.581Z,2.50
2023-04-30T21:06:33.717Z,2.35
2023-04-30T21:09:00.790Z,2.65
2023-04-30T21:11:28.389Z,2.20
2023-04-30T21:13:55.240Z,2.17
2023-04-30T21:16:22.445Z,2.33
2023-04-30T21:18:49.513Z,4.28
2023-04-30T21:21:17.189Z,3.33
2023-04-30T21:23:47.277Z,2.50
2023-04-30T21:26:15.364Z,2.58
2023-04-30T21:28:42.411Z,2.45
2023-04-30T21:31:09.581Z,1.92
2023-04-30T21:33:38.110Z,1.77
2023-04-30T21:36:05.790Z,2.03
2023-04-30T21:38:32.829Z,1.95
2023-04-30T21:40:59.750Z,1.92
2023-04-30T21:43:26.589Z,1.83
2023-04-30T21:45:53.435Z,1.98
2023-04-30T21:48:20.413Z,1.88
2023-04-30T21:50:48.447Z,1.73
2023-04-30T21:53:16.605Z,2.28
2023-04-30T21:55:43.545Z,1.70
2023-04-30T21:58:10.501Z,2.30
2023-04-30T22:00:38.676Z,2.38
2023-04-30T22:03:05.642Z,2.13
2023-04-30T22:05:32.535Z,2.13
2023-04-30T22:08:00.201Z,1.40
2023-04-30T22:10:27.077Z,1.70
2023-04-30T22:12:53.928Z,1.80
2023-04-30T22:15:20.812Z,1.70
2023-04-30T22:17:47.859Z,2.40
2023-04-30T22:20:14.917Z,1.65
2023-04-30T22:22:44.480Z,1.48
2023-04-30T22:25:11.573Z,2.33
2023-04-30T22:27:38.486Z,2.60
2023-04-30T22:30:06.313Z,2.22
2023-04-30T22:32:33.954Z,2.17
2023-04-30T22:35:00.915Z,1.80
2023-04-30T22:37:27.739Z,1.88
2023-04-30T22:39:54.895Z,2.45
2023-04-30T22:42:23.737Z,2.05
2023-04-30T22:44:51.138Z,1.95
2023-04-30T22:47:18.491Z,2.25
2023-04-30T22:49:45.442Z,2.15
2023-04-30T22:52:12.309Z,2.10
2023-04-30T22:54:39.421Z,1.80
2023-04-30T22:57:06.761Z,2.33
2023-04-30T22:59:33.657Z,2.03
2023-04-30T23:02:00.855Z,2.78
2023-04-30T23:04:28.698Z,2.53
2023-04-30T23:06:56.122Z,2.20
2023-04-30T23:10:28.196Z,2.17
2023-04-30T23:12:56.384Z,2.33
2023-04-30T23:15:23.419Z,2.40
2023-04-30T23:17:50.474Z,3.67
2023-04-30T23:20:17.959Z,2.72
2023-04-30T23:22:44.890Z,2.70
2023-04-30T23:25:12.335Z,2.03
2023-04-30T23:27:39.166Z,2.63
2023-04-30T23:30:07.196Z,2.10
2023-04-30T23:32:34.100Z,3.08
2023-04-30T23:35:00.967Z,2.70
2023-04-30T23:37:28.006Z,2.15
2023-04-30T23:39:55.167Z,2.40
2023-04-30T23:42:22.250Z,2.95
2023-04-30T23:44:49.091Z,2.60
2023-04-30T23:47:15.923Z,2.83
2023-04-30T23:49:44.686Z,2.15
2023-04-30T23:52:14.517Z,2.60
2023-04-30T23:54:41.431Z,1.90
2023-04-30T23:57:08.355Z,2.22
2023-04-30T23:59:35.199Z,3.00
